createdAt,value
2022-08-19T00:00:16.349Z,40.84
2022-08-19T00:02:49.940Z,41.20
2022-08-19T00:05:21.045Z,41.64
2022-08-19T00:07:51.745Z,41.69
2022-08-19T00:10:21.760Z,41.62
2022-08-19T00:12:50.423Z,41.67
2022-08-19T00:15:23.662Z,41.48
2022-08-19T00:17:52.049Z,41.72
2022-08-19T00:20:23.490Z,41.86
2022-08-19T00:22:52.021Z,41.98
2022-08-19T00:25:30.153Z,42.14
2022-08-19T00:27:59.245Z,42.13
2022-08-19T00:30:29.865Z,42.76
2022-08-19T00:32:58.681Z,42.65
2022-08-19T00:35:29.086Z,42.90
2022-08-19T00:37:58.276Z,42.98
2022-08-19T00:40:27.486Z,43.16
2022-08-19T00:42:55.789Z,43.29
2022-08-19T00:45:26.565Z,43.43
2022-08-19T00:47:54.861Z,43.55
2022-08-19T00:50:24.209Z,43.16
2022-08-19T00:52:53.767Z,43.33
2022-08-19T00:55:25.803Z,43.42
2022-08-19T00:57:58.501Z,43.87
2022-08-19T01:00:29.160Z,43.67
2022-08-19T01:02:57.892Z,43.94
2022-08-19T01:05:31.490Z,44.76
2022-08-19T01:08:03.190Z,45.29
2022-08-19T01:10:36.953Z,45.42
2022-08-19T01:13:06.672Z,45.52
2022-08-19T01:15:42.491Z,46.33
2022-08-19T01:18:13.785Z,46.40
2022-08-19T01:20:43.290Z,46.18
2022-08-19T01:23:11.630Z,47.09
2022-08-19T01:25:47.950Z,47.54
2022-08-19T01:28:40.078Z,47.20
2022-08-19T01:31:26.381Z,47.57
2022-08-19T01:33:58.380Z,47.98
2022-08-19T01:36:40.275Z,48.65
2022-08-19T01:39:12.406Z,48.89
2022-08-19T01:41:41.009Z,49.20
2022-08-19T01:44:18.447Z,49.96
2022-08-19T01:46:50.280Z,50.28
2022-08-19T01:49:21.560Z,50.54
2022-08-19T01:51:51.540Z,51.17
2022-08-19T01:54:23.475Z,50.73
2022-08-19T01:57:02.527Z,50.80
2022-08-19T01:59:32.312Z,50.63
2022-08-19T02:02:00.690Z,50.82
2022-08-19T02:04:29.121Z,51.17
2022-08-19T02:06:57.451Z,51.40
2022-08-19T02:09:25.780Z,51.74
2022-08-19T02:11:53.995Z,51.92
2022-08-19T02:14:22.231Z,52.25
2022-08-19T02:16:50.499Z,52.50
2022-08-19T02:19:19.347Z,52.54
2022-08-19T02:21:48.310Z,52.73
2022-08-19T02:24:16.796Z,52.92
2022-08-19T02:26:44.965Z,53.30
2022-08-19T02:29:13.225Z,53.36
2022-08-19T02:31:41.562Z,54.17
2022-08-19T02:34:10.365Z,53.59
2022-08-19T02:36:42.302Z,53.71
2022-08-19T02:39:12.113Z,53.90
2022-08-19T02:41:40.519Z,54.11
2022-08-19T02:44:28.920Z,54.27
2022-08-19T02:46:57.481Z,54.56
2022-08-19T02:49:25.800Z,54.84
2022-08-19T02:51:53.970Z,54.65
2022-08-19T02:54:22.265Z,54.64
2022-08-19T02:56:51.075Z,54.84
2022-08-19T02:59:22.903Z,55.17
2022-08-19T03:01:51.667Z,54.83
2022-08-19T03:04:21.193Z,54.95
2022-08-19T03:06:50.103Z,55.21
2022-08-19T03:09:20.529Z,55.38
2022-08-19T03:11:48.995Z,55.33
2022-08-19T03:14:21.155Z,55.72
2022-08-19T03:16:52.355Z,56.10
2022-08-19T03:19:23.288Z,56.31
2022-08-19T03:21:53.156Z,57.09
2022-08-19T03:24:22.730Z,56.58
2022-08-19T03:26:54.772Z,57.17
2022-08-19T03:29:30.885Z,56.99
2022-08-19T03:32:06.120Z,57.06
2022-08-19T03:34:36.845Z,56.95
2022-08-19T03:37:16.835Z,56.98
2022-08-19T03:39:45.116Z,57.33
2022-08-19T03:42:38.275Z,57.77
2022-08-19T03:45:02.927Z,57.72
2022-08-19T03:47:32.431Z,57.79
2022-08-19T03:50:00.745Z,57.76
2022-08-19T03:52:29.165Z,58.12
2022-08-19T03:54:57.400Z,57.95
2022-08-19T03:57:31.793Z,58.19
2022-08-19T04:00:12.698Z,58.63
2022-08-19T04:02:58.046Z,58.50
2022-08-19T04:05:31.717Z,58.56
2022-08-19T04:08:01.000Z,58.45
2022-08-19T04:10:30.115Z,58.69
2022-08-19T04:12:58.505Z,58.95
2022-08-19T04:15:26.665Z,58.86
2022-08-19T04:17:55.080Z,58.98
2022-08-19T04:20:23.561Z,59.21
2022-08-19T04:22:55.019Z,59.39
2022-08-19T04:25:23.400Z,59.20
2022-08-19T04:27:51.875Z,59.26
2022-08-19T04:30:21.158Z,59.47
2022-08-19T04:32:49.481Z,59.59
2022-08-19T04:35:20.138Z,59.73
2022-08-19T04:37:50.305Z,59.85
2022-08-19T04:40:36.978Z,59.83
2022-08-19T04:43:05.315Z,60.03
2022-08-19T04:45:39.451Z,60.12
2022-08-19T04:48:25.669Z,59.97
2022-08-19T04:51:01.631Z,60.27
2022-08-19T04:53:37.735Z,60.70
2022-08-19T04:56:15.030Z,60.55
2022-08-19T04:58:46.119Z,60.74
2022-08-19T05:01:21.704Z,60.92
2022-08-19T05:03:51.061Z,60.99
2022-08-19T05:06:21.956Z,60.78
2022-08-19T05:08:50.875Z,60.90
2022-08-19T05:11:26.300Z,60.87
2022-08-19T05:13:55.220Z,61.00
2022-08-19T05:16:25.714Z,61.14
2022-08-19T05:19:12.416Z,61.34
2022-08-19T05:22:01.010Z,61.40
2022-08-19T05:24:29.798Z,61.43
2022-08-19T05:26:59.777Z,61.38
2022-08-19T05:29:36.165Z,61.43
2022-08-19T05:32:07.475Z,61.58
2022-08-19T05:34:35.730Z,61.60
2022-08-19T05:37:06.266Z,61.85
2022-08-19T05:39:36.574Z,62.17
2022-08-19T05:42:09.156Z,62.06
2022-08-19T05:44:47.560Z,62.21
2022-08-19T05:47:16.839Z,62.17
2022-08-19T05:49:45.320Z,62.37
2022-08-19T05:52:18.968Z,62.65
2022-08-19T05:54:51.359Z,62.72
2022-08-19T05:57:21.315Z,62.66
2022-08-19T05:59:52.692Z,62.76
2022-08-19T06:02:22.133Z,62.89
2022-08-19T06:04:51.475Z,62.96
2022-08-19T06:07:19.716Z,63.04
2022-08-19T06:09:59.644Z,62.91
2022-08-19T06:12:36.835Z,63.08
2022-08-19T06:15:12.211Z,63.15
2022-08-19T06:17:40.591Z,63.40
2022-08-19T06:20:14.984Z,63.39
2022-08-19T06:22:44.355Z,63.68
2022-08-19T06:25:13.870Z,63.65
2022-08-19T06:28:14.153Z,63.70
2022-08-19T06:30:31.428Z,63.81
2022-08-19T06:32:59.625Z,63.72
2022-08-19T06:35:28.241Z,63.74
2022-08-19T06:37:56.686Z,63.97
2022-08-19T06:40:25.427Z,64.04
2022-08-19T06:42:55.507Z,64.04
2022-08-19T06:45:34.775Z,63.84
2022-08-19T06:48:04.752Z,64.22
2022-08-19T06:50:33.231Z,64.11
2022-08-19T06:53:04.316Z,64.22
2022-08-19T06:55:33.471Z,64.18
2022-08-19T06:58:05.551Z,64.36
2022-08-19T07:00:35.555Z,64.49
2022-08-19T07:03:07.643Z,64.34
2022-08-19T07:05:45.884Z,64.39
2022-08-19T07:08:15.505Z,64.61
2022-08-19T07:10:47.776Z,64.74
2022-08-19T07:13:16.201Z,64.84
2022-08-19T07:15:44.426Z,64.49
2022-08-19T07:18:12.581Z,64.79
2022-08-19T07:20:43.726Z,64.79
2022-08-19T07:23:16.112Z,64.94
2022-08-19T07:25:53.026Z,65.01
2022-08-19T07:28:24.730Z,64.79
2022-08-19T07:30:54.756Z,64.92
2022-08-19T07:33:23.835Z,64.86
2022-08-19T07:35:57.225Z,65.11
2022-08-19T07:38:25.635Z,64.78
2022-08-19T07:40:55.855Z,65.09
2022-08-19T07:43:35.056Z,65.19
2022-08-19T07:46:03.668Z,65.31
2022-08-19T07:48:32.031Z,65.58
2022-08-19T07:51:03.871Z,65.38
2022-08-19T07:53:39.157Z,65.48
2022-08-19T07:56:09.475Z,65.75
2022-08-19T07:58:40.997Z,65.67
2022-08-19T08:01:12.676Z,65.87
2022-08-19T08:03:59.835Z,65.86
2022-08-19T08:06:46.916Z,65.84
2022-08-19T08:12:33.482Z,66.14
2022-08-19T08:15:12.436Z,66.21
2022-08-19T08:17:49.503Z,66.26
2022-08-19T08:20:21.156Z,66.33
2022-08-19T08:23:08.272Z,66.29
2022-08-19T08:25:38.240Z,66.52
2022-08-19T08:28:07.396Z,66.42
2022-08-19T08:30:37.964Z,66.53
2022-08-19T08:33:06.527Z,66.66
2022-08-19T08:35:35.646Z,66.68
2022-08-19T08:38:06.440Z,66.69
2022-08-19T08:40:56.197Z,66.91
2022-08-19T08:43:32.614Z,66.98
2022-08-19T08:46:12.359Z,66.84
2022-08-19T08:48:56.360Z,66.85
2022-08-19T08:51:35.769Z,66.99
2022-08-19T08:54:09.888Z,66.83
2022-08-19T08:56:41.797Z,67.09
2022-08-19T08:59:34.121Z,67.25
2022-08-19T09:02:02.911Z,67.16
2022-08-19T09:04:31.715Z,67.41
2022-08-19T09:07:47.302Z,67.57
2022-08-19T09:10:25.848Z,67.45
2022-08-19T09:13:37.840Z,67.55
2022-08-19T09:16:13.223Z,67.49
2022-08-19T09:18:45.955Z,67.64
2022-08-19T09:21:15.566Z,67.65
2022-08-19T09:23:45.167Z,67.42
2022-08-19T09:26:17.176Z,67.76
2022-08-19T09:28:50.435Z,67.96
2022-08-19T09:31:27.075Z,67.77
2022-08-19T09:33:59.235Z,67.84
2022-08-19T09:36:40.730Z,67.70
2022-08-19T09:39:15.988Z,68.01
2022-08-19T09:41:47.295Z,67.94
2022-08-19T09:44:18.199Z,67.92
2022-08-19T09:46:49.000Z,68.02
2022-08-19T09:49:19.851Z,68.09
2022-08-19T09:51:53.706Z,68.14
2022-08-19T09:54:23.661Z,68.15
2022-08-19T09:56:57.956Z,68.10
2022-08-19T09:59:26.275Z,68.23
2022-08-19T10:02:03.582Z,68.39
2022-08-19T10:04:55.560Z,68.08
2022-08-19T10:07:36.145Z,68.38
2022-08-19T10:10:08.910Z,68.47
2022-08-19T10:12:38.825Z,68.53
2022-08-19T10:15:08.044Z,68.51
2022-08-19T10:17:36.994Z,68.70
2022-08-19T10:20:07.959Z,68.74
2022-08-19T10:22:37.955Z,68.72
2022-08-19T10:25:08.035Z,68.77
2022-08-19T10:27:36.355Z,68.71
2022-08-19T10:30:10.113Z,68.84
2022-08-19T10:32:46.428Z,68.79
2022-08-19T10:35:16.258Z,68.93
2022-08-19T10:37:57.462Z,69.05
2022-08-19T10:40:30.352Z,69.13
2022-08-19T10:42:58.757Z,68.98
2022-08-19T10:45:28.515Z,69.03
2022-08-19T10:47:56.819Z,69.07
2022-08-19T10:50:43.245Z,69.25
2022-08-19T10:53:11.554Z,69.19
2022-08-19T10:55:59.081Z,69.32
2022-08-19T10:58:27.944Z,69.40
2022-08-19T11:01:00.893Z,69.32
2022-08-19T11:03:32.995Z,69.61
2022-08-19T11:06:07.797Z,69.67
2022-08-19T11:08:39.325Z,69.58
2022-08-19T11:11:09.705Z,69.65
2022-08-19T11:13:41.320Z,69.67
2022-08-19T11:16:11.563Z,69.80
2022-08-19T11:18:43.075Z,69.63
2022-08-19T11:21:21.314Z,69.81
2022-08-19T11:23:53.315Z,69.79
2022-08-19T11:26:22.839Z,69.88
2022-08-19T11:28:54.429Z,69.78
2022-08-19T11:31:29.162Z,70.03
2022-08-19T11:34:03.364Z,70.13
2022-08-19T11:36:34.595Z,70.02
2022-08-19T11:39:03.720Z,70.02
2022-08-19T11:41:32.014Z,69.85
2022-08-19T11:44:00.679Z,69.86
2022-08-19T11:46:32.360Z,69.86
2022-08-19T11:49:02.442Z,70.14
2022-08-19T11:51:32.194Z,70.17
2022-08-19T11:54:02.025Z,69.97
2022-08-19T11:56:30.914Z,70.14
2022-08-19T11:58:59.239Z,70.08
2022-08-19T12:01:28.670Z,70.07
2022-08-19T12:03:58.809Z,69.92
2022-08-19T12:06:31.079Z,69.91
2022-08-19T12:09:02.274Z,69.94
2022-08-19T12:11:34.534Z,69.78
2022-08-19T12:14:03.234Z,69.74
2022-08-19T12:16:34.595Z,69.98
2022-08-19T12:19:07.235Z,69.98
2022-08-19T12:21:38.125Z,69.94
2022-08-19T12:24:07.719Z,69.90
2022-08-19T12:26:53.536Z,70.22
2022-08-19T12:29:24.137Z,69.64
2022-08-19T12:31:53.475Z,70.09
2022-08-19T12:34:22.279Z,70.06
2022-08-19T12:36:51.554Z,70.02
2022-08-19T12:39:20.190Z,70.05
2022-08-19T12:41:54.354Z,70.12
2022-08-19T12:44:29.437Z,69.99
2022-08-19T12:46:59.196Z,70.10
2022-08-19T12:49:52.354Z,70.07
2022-08-19T12:52:21.460Z,70.12
2022-08-19T12:54:54.078Z,70.10
2022-08-19T12:57:32.089Z,70.20
2022-08-19T13:00:22.679Z,70.00
2022-08-19T13:02:54.280Z,69.95
2022-08-19T13:05:27.931Z,69.76
2022-08-19T13:07:58.435Z,70.27
2022-08-19T13:10:30.904Z,70.07
2022-08-19T13:13:01.482Z,70.12
2022-08-19T13:15:33.175Z,70.26
2022-08-19T13:18:01.469Z,70.24
2022-08-19T13:20:30.185Z,70.30
2022-08-19T13:22:59.243Z,70.30
2022-08-19T13:25:28.585Z,70.11
2022-08-19T13:28:01.320Z,70.18
2022-08-19T13:30:47.961Z,70.07
2022-08-19T13:33:17.322Z,70.11
2022-08-19T13:36:02.830Z,70.22
2022-08-19T13:38:32.317Z,69.97
2022-08-19T13:41:12.146Z,69.99
2022-08-19T13:43:41.787Z,70.14
2022-08-19T13:46:16.514Z,70.19
2022-08-19T13:48:46.060Z,70.20
2022-08-19T13:51:14.565Z,70.19
2022-08-19T13:53:47.874Z,70.00
2022-08-19T13:56:25.870Z,70.10
2022-08-19T13:58:55.310Z,70.18
2022-08-19T14:01:28.515Z,70.10
2022-08-19T14:03:56.996Z,70.42
2022-08-19T14:06:25.316Z,70.40
2022-08-19T14:08:54.755Z,70.29
2022-08-19T14:11:24.831Z,70.40
2022-08-19T14:13:54.115Z,70.25
2022-08-19T14:16:23.555Z,69.95
2022-08-19T14:18:52.041Z,70.13
2022-08-19T14:21:25.561Z,70.27
2022-08-19T14:23:54.506Z,70.07
2022-08-19T14:26:24.196Z,70.10
2022-08-19T14:28:54.188Z,70.17
2022-08-19T14:31:29.109Z,70.07
2022-08-19T14:33:59.240Z,69.87
2022-08-19T14:36:27.565Z,69.87
2022-08-19T14:38:56.085Z,69.62
2022-08-19T14:41:25.915Z,69.57
2022-08-19T14:43:55.846Z,69.51
2022-08-19T14:46:28.239Z,69.78
2022-08-19T14:48:59.942Z,69.56
2022-08-19T14:51:28.795Z,69.64
2022-08-19T14:53:57.961Z,69.61
2022-08-19T14:56:29.635Z,69.45
2022-08-19T14:59:01.156Z,69.42
2022-08-19T15:01:30.307Z,69.45
2022-08-19T15:03:58.667Z,69.22
2022-08-19T15:06:27.556Z,69.30
2022-08-19T15:08:57.776Z,69.19
2022-08-19T15:11:30.115Z,69.18
2022-08-19T15:14:00.748Z,69.11
2022-08-19T15:16:29.606Z,68.83
2022-08-19T15:19:01.637Z,69.04
2022-08-19T15:21:31.720Z,69.12
2022-08-19T15:24:00.920Z,68.79
2022-08-19T15:26:33.810Z,69.02
2022-08-19T15:29:03.880Z,68.65
2022-08-19T15:31:38.123Z,68.66
2022-08-19T15:34:08.032Z,68.66
2022-08-19T15:36:37.483Z,68.71
2022-08-19T15:39:08.310Z,68.26
2022-08-19T15:41:40.266Z,68.04
2022-08-19T15:44:11.730Z,68.43
2022-08-19T15:46:42.717Z,68.66
2022-08-19T15:49:15.796Z,68.43
2022-08-19T15:51:47.086Z,68.10
2022-08-19T15:54:18.676Z,67.88
2022-08-19T15:57:07.035Z,68.09
2022-08-19T15:59:55.950Z,67.92
2022-08-19T16:02:49.715Z,67.93
2022-08-19T16:05:44.998Z,67.72
2022-08-19T16:08:13.327Z,67.70
2022-08-19T16:10:41.931Z,67.37
2022-08-19T16:13:11.829Z,67.33
2022-08-19T16:15:42.780Z,67.05
2022-08-19T16:18:11.401Z,66.95
2022-08-19T16:20:39.715Z,66.78
2022-08-19T16:23:08.155Z,66.70
2022-08-19T16:25:37.249Z,66.46
2022-08-19T16:28:08.050Z,66.32
2022-08-19T16:30:40.042Z,66.20
2022-08-19T16:33:09.709Z,65.99
2022-08-19T16:35:38.305Z,65.53
2022-08-19T16:38:07.885Z,65.61
2022-08-19T16:40:36.675Z,65.44
2022-08-19T16:43:05.364Z,65.24
2022-08-19T16:45:33.800Z,64.95
2022-08-19T16:48:02.128Z,64.93
2022-08-19T16:50:48.328Z,64.74
2022-08-19T16:53:20.368Z,64.79
2022-08-19T16:55:57.518Z,64.84
2022-08-19T16:58:29.926Z,64.62
2022-08-19T17:01:03.904Z,64.68
2022-08-19T17:03:36.352Z,64.06
2022-08-19T17:06:20.521Z,63.80
2022-08-19T17:08:55.395Z,63.54
2022-08-19T17:11:26.336Z,63.79
2022-08-19T17:13:56.521Z,63.40
2022-08-19T17:16:27.565Z,63.02
2022-08-19T17:18:57.880Z,62.83
2022-08-19T17:21:29.483Z,62.66
2022-08-19T17:23:58.725Z,62.52
2022-08-19T17:26:28.120Z,62.18
2022-08-19T17:28:58.560Z,61.85
2022-08-19T17:31:29.560Z,61.66
2022-08-19T17:33:59.760Z,61.39
2022-08-19T17:36:30.170Z,61.46
2022-08-19T17:39:01.331Z,61.29
2022-08-19T17:41:31.245Z,60.91
2022-08-19T17:43:59.766Z,60.48
2022-08-19T17:46:30.927Z,60.25
2022-08-19T17:48:59.375Z,60.50
2022-08-19T17:51:33.416Z,60.26
2022-08-19T17:54:02.375Z,59.61
2022-08-19T17:56:30.682Z,59.25
2022-08-19T17:59:00.423Z,59.58
2022-08-19T18:01:51.810Z,59.06
2022-08-19T18:04:20.489Z,58.74
2022-08-19T18:06:52.972Z,58.95
2022-08-19T18:09:28.195Z,58.24
2022-08-19T18:11:58.385Z,57.78
2022-08-19T18:14:33.795Z,57.58
2022-08-19T18:17:10.113Z,57.27
2022-08-19T18:19:43.906Z,57.01
2022-08-19T18:22:24.355Z,56.97
2022-08-19T18:24:52.675Z,56.81
2022-08-19T18:27:21.715Z,56.42
2022-08-19T18:29:50.441Z,56.72
2022-08-19T18:32:23.545Z,56.04
2022-08-19T18:34:54.115Z,56.01
2022-08-19T18:37:23.485Z,55.39
2022-08-19T18:40:09.941Z,54.99
2022-08-19T18:43:02.526Z,53.73
2022-08-19T18:45:50.030Z,54.07
2022-08-19T18:48:36.477Z,53.84
2022-08-19T18:51:05.650Z,53.33
2022-08-19T18:53:36.681Z,52.51
2022-08-19T18:56:06.560Z,52.68
2022-08-19T18:58:35.886Z,51.07
2022-08-19T19:01:14.230Z,51.60
2022-08-19T19:03:46.794Z,51.84
2022-08-19T19:06:20.760Z,51.37
2022-08-19T19:08:51.090Z,51.39
2022-08-19T19:11:41.635Z,50.92
2022-08-19T19:14:23.244Z,50.37
2022-08-19T19:17:02.924Z,49.84
2022-08-19T19:19:32.710Z,50.09
2022-08-19T19:22:03.170Z,49.65
2022-08-19T19:24:33.705Z,49.85
2022-08-19T19:27:07.891Z,49.45
2022-08-19T19:29:39.155Z,48.89
2022-08-19T19:32:09.401Z,48.64
2022-08-19T19:34:41.550Z,47.76
2022-08-19T19:37:09.956Z,48.03
2022-08-19T19:39:45.177Z,47.45
2022-08-19T19:42:21.264Z,47.18
2022-08-19T19:44:52.153Z,46.84
2022-08-19T19:47:22.191Z,45.96
2022-08-19T19:50:13.318Z,46.17
2022-08-19T19:52:42.390Z,45.58
2022-08-19T19:55:18.936Z,45.68
2022-08-19T19:57:51.032Z,44.92
2022-08-19T20:00:19.967Z,44.80
2022-08-19T20:02:50.509Z,44.89
2022-08-19T20:05:22.742Z,44.41
2022-08-19T20:08:10.679Z,44.13
2022-08-19T20:10:40.330Z,43.38
2022-08-19T20:13:09.318Z,43.48
2022-08-19T20:15:42.331Z,43.51
2022-08-19T20:18:13.006Z,44.25
2022-08-19T20:20:42.455Z,44.26
2022-08-19T20:23:10.667Z,43.75
2022-08-19T20:25:40.515Z,44.12
2022-08-19T20:28:09.735Z,43.83
2022-08-19T20:30:42.033Z,43.60
2022-08-19T20:33:16.450Z,43.14
2022-08-19T20:35:46.017Z,43.57
2022-08-19T20:38:15.045Z,43.14
2022-08-19T20:40:43.722Z,42.96
2022-08-19T20:43:16.356Z,42.87
2022-08-19T20:45:44.996Z,42.74
2022-08-19T20:48:14.602Z,42.92
2022-08-19T20:50:43.246Z,42.83
2022-08-19T20:53:17.076Z,42.37
2022-08-19T20:55:47.556Z,42.98
2022-08-19T20:58:17.156Z,42.16
2022-08-19T21:00:46.983Z,41.97
2022-08-19T21:03:23.080Z,41.66
2022-08-19T21:05:51.795Z,41.77
2022-08-19T21:08:20.205Z,41.72
2022-08-19T21:10:50.755Z,41.91
2022-08-19T21:13:20.841Z,41.19
2022-08-19T21:15:49.642Z,41.24
2022-08-19T21:18:20.611Z,41.12
2022-08-19T21:20:50.201Z,40.60
2022-08-19T21:23:22.296Z,40.64
2022-08-19T21:25:54.887Z,40.75
2022-08-19T21:28:35.843Z,40.66
2022-08-19T21:31:07.147Z,40.16
2022-08-19T21:33:35.647Z,40.09
2022-08-19T21:36:05.511Z,40.06
2022-08-19T21:38:34.755Z,39.80
2022-08-19T21:41:05.925Z,39.43
2022-08-19T21:43:36.291Z,39.26
2022-08-19T21:46:05.405Z,39.23
2022-08-19T21:48:34.039Z,38.92
2022-08-19T21:51:02.441Z,38.95
2022-08-19T21:53:31.661Z,38.80
2022-08-19T21:56:07.640Z,38.61
2022-08-19T21:58:39.391Z,38.29
2022-08-19T22:01:08.908Z,37.40
2022-08-19T22:03:38.585Z,37.64
2022-08-19T22:06:08.822Z,37.53
2022-08-19T22:08:38.031Z,37.53
2022-08-19T22:11:06.525Z,37.52
2022-08-19T22:13:40.362Z,37.64
2022-08-19T22:16:10.612Z,37.55
2022-08-19T22:18:39.485Z,36.98
2022-08-19T22:21:11.713Z,37.07
2022-08-19T22:23:47.875Z,37.31
2022-08-19T22:26:18.072Z,37.53
2022-08-19T22:28:46.431Z,37.29
2022-08-19T22:31:15.722Z,36.86
2022-08-19T22:33:44.286Z,36.83
2022-08-19T22:36:12.685Z,36.79
2022-08-19T22:38:41.011Z,36.62
2022-08-19T22:41:09.955Z,36.73
2022-08-19T22:43:38.915Z,36.78
2022-08-19T22:46:17.249Z,36.56
2022-08-19T22:48:47.236Z,36.33
2022-08-19T22:51:34.985Z,36.82
2022-08-19T22:54:03.710Z,37.06
2022-08-19T22:56:31.945Z,37.01
2022-08-19T22:59:00.360Z,36.84
2022-08-19T23:01:30.645Z,36.67
2022-08-19T23:04:03.783Z,37.07
2022-08-19T23:06:34.666Z,36.32
2022-08-19T23:09:07.717Z,36.79
2022-08-19T23:11:42.009Z,37.26
2022-08-19T23:14:13.406Z,37.80
2022-08-19T23:16:42.595Z,37.89
2022-08-19T23:19:12.520Z,38.25
2022-08-19T23:21:42.515Z,37.86
2022-08-19T23:24:11.554Z,38.38
2022-08-19T23:27:00.675Z,38.58
2022-08-19T23:29:47.334Z,38.79
2022-08-19T23:32:17.637Z,39.17
2022-08-19T23:34:46.196Z,39.12
2022-08-19T23:37:14.737Z,39.40
2022-08-19T23:39:43.440Z,38.78
2022-08-19T23:42:14.595Z,39.28
2022-08-19T23:44:52.340Z,38.73
2022-08-19T23:47:22.435Z,38.59
2022-08-19T23:49:51.555Z,38.76
2022-08-19T23:52:20.257Z,38.42
2022-08-19T23:54:48.486Z,39.05
2022-08-19T23:57:16.943Z,39.19
2022-08-19T23:59:46.085Z,39.32
